createdAt,value
2019-01-30T00:00:25.072Z,12.20
2019-01-30T00:03:28.018Z,10.67
2019-01-30T00:06:31.719Z,9.67
2019-01-30T00:09:34.453Z,8.67
2019-01-30T00:12:37.080Z,7.90
2019-01-30T00:15:39.746Z,7.63
2019-01-30T00:18:42.396Z,7.07
2019-01-30T00:21:45.101Z,9.30
2019-01-30T00:24:47.759Z,9.80
2019-01-30T00:27:53.699Z,7.90
2019-01-30T00:30:56.417Z,7.83
2019-01-30T00:33:59.110Z,6.93
2019-01-30T00:37:01.805Z,7.00
2019-01-30T00:40:05.333Z,8.33
2019-01-30T00:43:07.990Z,9.00
2019-01-30T00:46:10.744Z,6.37
2019-01-30T00:49:13.335Z,7.33
2019-01-30T00:52:16.065Z,8.50
2019-01-30T00:55:18.827Z,7.20
2019-01-30T00:58:21.502Z,8.57
2019-01-30T01:01:25.056Z,6.80
2019-01-30T01:04:29.731Z,6.40
2019-01-30T01:07:32.340Z,8.10
2019-01-30T01:10:34.887Z,8.27
2019-01-30T01:13:37.554Z,8.20
2019-01-30T01:16:40.263Z,7.50
2019-01-30T01:19:42.810Z,6.23
2019-01-30T01:22:45.567Z,9.73
2019-01-30T01:25:48.202Z,6.00
2019-01-30T01:28:50.947Z,9.97
2019-01-30T01:31:53.638Z,6.07
2019-01-30T01:34:56.207Z,6.63
2019-01-30T01:37:58.957Z,5.57
2019-01-30T01:41:01.620Z,6.80
2019-01-30T01:44:05.247Z,8.47
2019-01-30T01:47:07.895Z,8.20
2019-01-30T01:50:12.774Z,10.37
2019-01-30T01:53:15.421Z,8.77
2019-01-30T01:56:18.016Z,6.93
2019-01-30T01:59:20.565Z,8.10
2019-01-30T02:02:23.257Z,6.33
2019-01-30T02:05:25.954Z,6.27
2019-01-30T02:08:28.632Z,11.27
2019-01-30T02:11:31.363Z,7.77
2019-01-30T02:14:34.042Z,7.60
2019-01-30T02:17:36.756Z,7.50
2019-01-30T02:20:39.471Z,5.87
2019-01-30T02:23:45.021Z,7.10
2019-01-30T02:26:47.670Z,7.37
2019-01-30T02:29:50.344Z,9.07
2019-01-30T02:32:53.204Z,11.00
2019-01-30T02:35:55.876Z,8.67
2019-01-30T02:38:58.596Z,6.93
2019-01-30T02:42:01.241Z,9.20
2019-01-30T02:45:04.992Z,6.33
2019-01-30T02:48:07.542Z,7.10
2019-01-30T02:51:10.239Z,8.23
2019-01-30T02:54:12.867Z,8.33
2019-01-30T02:57:15.674Z,9.83
2019-01-30T03:00:31.477Z,10.20
2019-01-30T03:03:34.027Z,8.17
2019-01-30T03:06:36.696Z,7.60
2019-01-30T03:09:39.357Z,7.47
2019-01-30T03:12:41.980Z,7.03
2019-01-30T03:15:44.536Z,10.30
2019-01-30T03:18:49.398Z,7.60
2019-01-30T03:21:51.914Z,9.30
2019-01-30T03:24:54.565Z,6.17
2019-01-30T03:27:57.256Z,7.37
2019-01-30T03:31:15.643Z,5.90
2019-01-30T03:34:04.787Z,5.13
2019-01-30T03:37:07.439Z,8.30
2019-01-30T03:40:12.690Z,6.03
2019-01-30T03:43:15.267Z,7.73
2019-01-30T03:46:17.870Z,7.27
2019-01-30T03:49:20.517Z,9.33
2019-01-30T03:52:23.204Z,8.17
2019-01-30T03:55:25.842Z,5.97
2019-01-30T03:58:28.430Z,6.43
2019-01-30T04:01:31.066Z,6.90
2019-01-30T04:04:34.769Z,8.70
2019-01-30T04:07:37.438Z,7.37
2019-01-30T04:10:40.084Z,8.20
2019-01-30T04:13:42.748Z,14.60
2019-01-30T04:16:45.395Z,10.27
2019-01-30T04:19:48.087Z,9.07
2019-01-30T04:22:50.718Z,16.83
2019-01-30T04:25:53.379Z,11.47
2019-01-30T04:28:55.993Z,13.63
2019-01-30T04:31:59.517Z,9.60
2019-01-30T04:35:02.620Z,12.80
2019-01-30T04:38:05.290Z,11.10
2019-01-30T04:41:08.018Z,11.90
2019-01-30T04:44:10.611Z,15.20
2019-01-30T04:47:14.271Z,15.07
2019-01-30T04:50:16.909Z,13.50
2019-01-30T04:53:19.517Z,12.70
2019-01-30T04:56:22.088Z,10.47
2019-01-30T04:59:24.756Z,12.17
2019-01-30T05:02:27.274Z,11.37
2019-01-30T05:05:29.991Z,13.47
2019-01-30T05:08:32.627Z,9.27
2019-01-30T05:11:35.300Z,12.67
2019-01-30T05:14:37.977Z,13.53
2019-01-30T05:17:40.722Z,11.93
2019-01-30T05:20:43.394Z,13.13
2019-01-30T05:23:46.171Z,11.33
2019-01-30T05:26:48.734Z,12.20
2019-01-30T05:29:51.354Z,17.87
2019-01-30T05:32:53.906Z,11.83
2019-01-30T05:35:56.555Z,12.07
2019-01-30T05:38:59.246Z,12.00
2019-01-30T05:42:02.162Z,9.83
2019-01-30T05:45:05.629Z,10.20
2019-01-30T05:48:08.358Z,15.13
2019-01-30T05:51:11.030Z,14.57
2019-01-30T05:54:13.720Z,11.83
2019-01-30T05:57:16.526Z,12.43
2019-01-30T06:00:35.477Z,8.17
2019-01-30T06:03:38.227Z,9.43
2019-01-30T06:06:40.774Z,8.83
2019-01-30T06:09:44.586Z,11.73
2019-01-30T06:12:47.147Z,10.10
2019-01-30T06:15:49.715Z,13.57
2019-01-30T06:18:52.393Z,9.83
2019-01-30T06:21:55.055Z,15.33
2019-01-30T06:24:57.793Z,10.33
2019-01-30T06:28:00.574Z,12.37
2019-01-30T06:31:03.312Z,14.40
2019-01-30T06:34:05.972Z,16.20
2019-01-30T06:37:08.761Z,13.30
2019-01-30T06:40:14.539Z,13.93
2019-01-30T06:43:17.168Z,16.43
2019-01-30T06:46:19.952Z,17.73
2019-01-30T06:49:23.782Z,15.33
2019-01-30T06:52:26.441Z,11.47
2019-01-30T06:55:29.101Z,11.87
2019-01-30T06:58:31.727Z,18.10
2019-01-30T07:01:34.498Z,14.90
2019-01-30T07:04:37.146Z,12.17
2019-01-30T07:07:39.736Z,12.50
2019-01-30T07:10:42.250Z,13.70
2019-01-30T07:13:44.917Z,22.07
2019-01-30T07:16:47.464Z,16.40
2019-01-30T07:19:50.133Z,22.03
2019-01-30T07:22:52.789Z,17.50
2019-01-30T07:25:55.385Z,28.83
2019-01-30T07:28:58.053Z,21.30
2019-01-30T07:32:00.748Z,16.70
2019-01-30T07:35:04.998Z,19.43
2019-01-30T07:38:07.686Z,22.57
2019-01-30T07:41:10.368Z,27.77
2019-01-30T07:44:13.010Z,24.67
2019-01-30T07:47:15.672Z,22.03
2019-01-30T07:50:18.339Z,27.67
2019-01-30T07:53:20.986Z,29.53
2019-01-30T07:56:23.702Z,22.00
2019-01-30T07:59:26.494Z,18.10
2019-01-30T08:02:29.172Z,25.50
2019-01-30T08:05:31.786Z,29.00
2019-01-30T08:08:34.464Z,25.90
2019-01-30T08:11:37.131Z,23.67
2019-01-30T08:14:39.759Z,23.67
2019-01-30T08:17:42.460Z,24.87
2019-01-30T08:20:45.186Z,23.83
2019-01-30T08:23:48.180Z,21.07
2019-01-30T08:26:50.904Z,25.63
2019-01-30T08:29:53.597Z,22.90
2019-01-30T08:33:04.029Z,24.77
2019-01-30T08:36:02.328Z,23.10
2019-01-30T08:39:07.032Z,24.70
2019-01-30T08:42:09.640Z,21.80
2019-01-30T08:45:17.890Z,22.97
2019-01-30T08:48:21.006Z,25.50
2019-01-30T08:51:23.790Z,32.03
2019-01-30T08:54:26.366Z,25.37
2019-01-30T08:57:28.989Z,22.97
2019-01-30T09:00:31.671Z,30.77
2019-01-30T09:03:34.706Z,20.33
2019-01-30T09:06:37.402Z,24.67
2019-01-30T09:09:40.026Z,27.10
2019-01-30T09:12:42.692Z,23.47
2019-01-30T09:15:45.341Z,22.60
2019-01-30T09:18:48.003Z,25.53
2019-01-30T09:21:50.675Z,26.57
2019-01-30T09:24:53.364Z,29.77
2019-01-30T09:27:56.350Z,29.40
2019-01-30T09:30:58.964Z,35.97
2019-01-30T09:34:01.600Z,27.80
2019-01-30T09:37:04.426Z,26.87
2019-01-30T09:40:07.494Z,21.17
2019-01-30T09:43:10.211Z,20.93
2019-01-30T09:46:12.923Z,24.83
2019-01-30T09:49:15.605Z,25.07
2019-01-30T09:52:26.639Z,26.77
2019-01-30T09:55:22.934Z,29.23
2019-01-30T09:58:25.589Z,23.20
2019-01-30T10:01:28.305Z,31.67
2019-01-30T10:04:30.942Z,27.43
2019-01-30T10:07:33.626Z,26.83
2019-01-30T10:10:37.810Z,28.87
2019-01-30T10:13:40.401Z,23.80
2019-01-30T10:16:43.172Z,35.20
2019-01-30T10:19:45.756Z,28.97
2019-01-30T10:22:48.418Z,27.80
2019-01-30T10:25:51.123Z,37.43
2019-01-30T10:28:53.920Z,29.43
2019-01-30T10:31:56.617Z,27.43
2019-01-30T10:34:59.234Z,29.67
2019-01-30T10:38:02.019Z,27.83
2019-01-30T10:41:05.057Z,27.97
2019-01-30T10:44:07.737Z,37.73
2019-01-30T10:47:10.316Z,31.53
2019-01-30T10:50:15.066Z,34.03
2019-01-30T10:53:17.741Z,35.13
2019-01-30T10:56:20.496Z,35.40
2019-01-30T10:59:23.168Z,36.47
2019-01-30T11:02:26.232Z,38.53
2019-01-30T11:05:28.925Z,30.77
2019-01-30T11:08:34.402Z,31.50
2019-01-30T11:11:36.467Z,32.53
2019-01-30T11:14:41.045Z,35.77
2019-01-30T11:17:44.809Z,35.27
2019-01-30T11:20:48.254Z,34.00
2019-01-30T11:23:53.881Z,38.13
2019-01-30T11:26:56.936Z,36.87
2019-01-30T11:29:59.905Z,35.17
2019-01-30T11:33:03.507Z,35.37
2019-01-30T11:36:06.198Z,31.93
2019-01-30T11:39:09.783Z,27.97
2019-01-30T11:42:12.551Z,25.07
2019-01-30T11:45:20.594Z,23.07
2019-01-30T11:48:23.271Z,25.30
2019-01-30T11:51:26.185Z,27.50
2019-01-30T11:54:38.634Z,22.57
2019-01-30T11:57:43.678Z,31.70
2019-01-30T12:00:56.259Z,28.10
2019-01-30T12:03:59.503Z,25.97
2019-01-30T12:07:03.315Z,25.07
2019-01-30T12:10:06.795Z,29.40
2019-01-30T12:13:09.571Z,28.57
2019-01-30T12:16:12.929Z,26.30
2019-01-30T12:19:15.722Z,26.73
2019-01-30T12:22:18.303Z,26.93
2019-01-30T12:25:20.902Z,22.80
2019-01-30T12:28:23.693Z,31.37
2019-01-30T12:31:27.006Z,27.67
2019-01-30T12:34:29.854Z,26.37
2019-01-30T12:37:32.956Z,27.80
2019-01-30T12:40:38.368Z,24.13
2019-01-30T12:43:41.016Z,37.93
2019-01-30T12:46:43.953Z,24.83
2019-01-30T12:49:50.525Z,24.40
2019-01-30T12:52:53.154Z,23.90
2019-01-30T12:55:55.833Z,18.80
2019-01-30T12:58:58.769Z,24.00
2019-01-30T13:02:01.450Z,22.57
2019-01-30T13:05:06.750Z,25.93
2019-01-30T13:08:09.762Z,19.27
2019-01-30T13:11:12.452Z,18.27
2019-01-30T13:14:15.182Z,20.57
2019-01-30T13:17:17.809Z,17.23
2019-01-30T13:20:20.925Z,22.90
2019-01-30T13:23:23.550Z,25.40
2019-01-30T13:26:26.238Z,19.77
2019-01-30T13:29:28.896Z,17.40
2019-01-30T13:32:31.522Z,22.20
2019-01-30T13:35:34.313Z,20.40
2019-01-30T13:38:36.958Z,20.40
2019-01-30T13:41:39.564Z,24.57
2019-01-30T13:44:42.165Z,25.73
2019-01-30T13:47:44.734Z,21.17
2019-01-30T13:50:47.908Z,22.37
2019-01-30T13:53:51.185Z,22.83
2019-01-30T13:56:53.892Z,19.03
2019-01-30T13:59:56.645Z,23.87
2019-01-30T14:02:59.499Z,26.23
2019-01-30T14:06:02.603Z,19.27
2019-01-30T14:09:07.622Z,19.73
2019-01-30T14:12:10.922Z,30.73
2019-01-30T14:15:15.549Z,33.13
2019-01-30T14:18:18.295Z,29.40
2019-01-30T14:21:21.038Z,25.73
2019-01-30T14:24:24.186Z,24.70
2019-01-30T14:27:26.821Z,24.13
2019-01-30T14:30:31.920Z,32.20
2019-01-30T14:33:35.090Z,38.93
2019-01-30T14:36:38.387Z,31.37
2019-01-30T14:39:41.217Z,33.47
2019-01-30T14:42:43.991Z,36.37
2019-01-30T14:45:47.340Z,30.80
2019-01-30T14:48:50.554Z,29.40
2019-01-30T14:51:53.315Z,33.50
2019-01-30T14:54:56.132Z,25.77
2019-01-30T14:57:58.784Z,29.80
2019-01-30T15:01:01.525Z,33.40
2019-01-30T15:04:04.277Z,28.57
2019-01-30T15:07:06.941Z,28.80
2019-01-30T15:10:11.134Z,29.87
2019-01-30T15:13:13.895Z,29.30
2019-01-30T15:16:16.527Z,31.53
2019-01-30T15:19:19.203Z,30.77
2019-01-30T15:22:21.967Z,34.03
2019-01-30T15:25:24.798Z,37.90
2019-01-30T15:28:27.479Z,33.43
2019-01-30T15:31:30.084Z,38.80
2019-01-30T15:34:32.878Z,40.57
2019-01-30T15:37:35.529Z,28.10
2019-01-30T15:40:38.113Z,37.93
2019-01-30T15:43:40.728Z,34.00
2019-01-30T15:46:43.439Z,31.27
2019-01-30T15:49:46.222Z,31.67
2019-01-30T15:52:49.006Z,35.47
2019-01-30T15:55:51.697Z,31.53
2019-01-30T15:58:57.154Z,29.80
2019-01-30T16:01:59.731Z,33.73
2019-01-30T16:05:02.607Z,34.90
2019-01-30T16:08:05.677Z,43.77
2019-01-30T16:11:08.348Z,32.87
2019-01-30T16:14:12.700Z,35.33
2019-01-30T16:17:15.254Z,36.90
2019-01-30T16:20:18.622Z,32.80
2019-01-30T16:23:21.300Z,29.60
2019-01-30T16:26:23.977Z,28.03
2019-01-30T16:29:26.643Z,28.10
2019-01-30T16:32:29.460Z,34.37
2019-01-30T16:35:32.194Z,30.80
2019-01-30T16:38:34.769Z,39.03
2019-01-30T16:41:37.450Z,34.93
2019-01-30T16:44:40.125Z,32.00
2019-01-30T16:47:42.804Z,33.47
2019-01-30T16:50:45.409Z,28.90
2019-01-30T16:53:48.119Z,44.40
2019-01-30T16:56:50.633Z,30.33
2019-01-30T16:59:53.283Z,30.37
2019-01-30T17:02:56.059Z,31.57
2019-01-30T17:06:07.048Z,36.47
2019-01-30T17:09:06.489Z,33.87
2019-01-30T17:12:10.309Z,34.60
2019-01-30T17:15:18.407Z,32.33
2019-01-30T17:18:21.082Z,37.20
2019-01-30T17:21:23.988Z,37.20
2019-01-30T17:24:26.710Z,40.17
2019-01-30T17:27:29.543Z,39.73
2019-01-30T17:30:35.887Z,37.40
2019-01-30T17:33:38.786Z,38.33
2019-01-30T17:36:41.725Z,41.53
2019-01-30T17:39:44.530Z,32.23
2019-01-30T17:42:48.391Z,32.00
2019-01-30T17:45:51.273Z,35.10
2019-01-30T17:48:54.107Z,33.13
2019-01-30T17:51:56.816Z,34.87
2019-01-30T17:55:00.612Z,35.13
2019-01-30T17:58:03.725Z,31.13
2019-01-30T18:01:06.771Z,30.20
2019-01-30T18:04:09.509Z,34.77
2019-01-30T18:07:13.536Z,28.93
2019-01-30T18:10:17.884Z,34.43
2019-01-30T18:13:20.762Z,25.67
2019-01-30T18:16:23.637Z,27.70
2019-01-30T18:19:26.375Z,28.33
2019-01-30T18:22:29.160Z,29.33
2019-01-30T18:25:32.088Z,32.13
2019-01-30T18:28:34.904Z,23.73
2019-01-30T18:31:37.794Z,38.77
2019-01-30T18:34:40.681Z,26.63
2019-01-30T18:37:43.614Z,26.73
2019-01-30T18:40:46.414Z,27.67
2019-01-30T18:43:49.185Z,28.43
2019-01-30T18:46:52.098Z,28.80
2019-01-30T18:49:55.019Z,26.13
2019-01-30T18:52:57.978Z,30.13
2019-01-30T18:56:00.724Z,30.13
2019-01-30T18:59:03.516Z,29.30
2019-01-30T19:02:06.258Z,24.93
2019-01-30T19:05:09.850Z,26.43
2019-01-30T19:08:12.556Z,24.63
2019-01-30T19:11:15.509Z,24.00
2019-01-30T19:14:18.326Z,24.93
2019-01-30T19:17:21.209Z,29.80
2019-01-30T19:20:29.126Z,26.47
2019-01-30T19:23:31.894Z,28.57
2019-01-30T19:26:34.710Z,27.90
2019-01-30T19:29:37.446Z,29.00
2019-01-30T19:32:40.296Z,24.03
2019-01-30T19:35:43.109Z,25.00
2019-01-30T19:38:45.799Z,25.90
2019-01-30T19:41:50.354Z,26.77
2019-01-30T19:44:53.131Z,27.17
2019-01-30T19:47:58.677Z,24.83
2019-01-30T19:51:01.789Z,32.40
2019-01-30T19:54:04.801Z,28.83
2019-01-30T19:57:07.634Z,23.07
2019-01-30T20:00:22.446Z,29.27
2019-01-30T20:03:31.299Z,28.27
2019-01-30T20:06:34.543Z,30.57
2019-01-30T20:09:38.895Z,25.60
2019-01-30T20:12:41.931Z,23.80
2019-01-30T20:15:47.548Z,25.00
2019-01-30T20:18:50.512Z,28.93
2019-01-30T20:21:53.602Z,21.93
2019-01-30T20:24:56.708Z,25.20
2019-01-30T20:28:03.847Z,26.80
2019-01-30T20:31:06.647Z,23.83
2019-01-30T20:34:10.577Z,23.83
2019-01-30T20:37:25.658Z,28.20
2019-01-30T20:40:23.931Z,23.70
2019-01-30T20:43:27.745Z,20.63
2019-01-30T20:46:30.781Z,21.73
2019-01-30T20:49:33.818Z,28.27
2019-01-30T20:52:37.255Z,24.77
2019-01-30T20:55:40.110Z,22.97
2019-01-30T20:58:43.081Z,19.17
2019-01-30T21:01:45.956Z,19.60
2019-01-30T21:04:48.779Z,25.40
2019-01-30T21:07:51.660Z,24.40
2019-01-30T21:10:58.062Z,25.37
2019-01-30T21:14:01.057Z,20.40
2019-01-30T21:17:04.287Z,21.17
2019-01-30T21:20:07.596Z,24.93
2019-01-30T21:23:10.446Z,24.07
2019-01-30T21:26:13.227Z,25.77
2019-01-30T21:29:16.096Z,22.10
2019-01-30T21:32:18.949Z,21.60
2019-01-30T21:35:21.810Z,23.23
2019-01-30T21:38:24.909Z,23.87
2019-01-30T21:41:27.644Z,24.60
2019-01-30T21:44:30.375Z,27.23
2019-01-30T21:47:33.171Z,17.63
2019-01-30T21:50:42.340Z,20.47
2019-01-30T21:53:44.956Z,23.23
2019-01-30T21:56:47.580Z,26.80
2019-01-30T21:59:50.241Z,22.83
2019-01-30T22:02:52.876Z,20.07
2019-01-30T22:05:57.449Z,18.33
2019-01-30T22:09:00.159Z,29.30
2019-01-30T22:12:03.188Z,20.47
2019-01-30T22:15:07.485Z,23.30
2019-01-30T22:18:10.148Z,24.17
2019-01-30T22:21:12.806Z,17.27
2019-01-30T22:24:15.480Z,25.53
2019-01-30T22:27:18.064Z,18.20
2019-01-30T22:30:23.065Z,24.40
2019-01-30T22:33:25.693Z,16.63
2019-01-30T22:36:28.316Z,23.77
2019-01-30T22:39:31.060Z,20.23
2019-01-30T22:42:33.797Z,22.17
2019-01-30T22:45:36.336Z,16.83
2019-01-30T22:48:39.121Z,18.83
2019-01-30T22:51:42.014Z,18.27
2019-01-30T22:54:44.650Z,20.97
2019-01-30T22:57:50.594Z,20.70
2019-01-30T23:01:28.758Z,22.37
2019-01-30T23:04:53.284Z,20.80
2019-01-30T23:08:00.681Z,21.77
2019-01-30T23:11:51.377Z,18.27
2019-01-30T23:15:18.134Z,17.37
2019-01-30T23:18:47.764Z,16.07
2019-01-30T23:22:23.169Z,18.27
2019-01-30T23:25:52.261Z,16.93
2019-01-30T23:29:37.138Z,20.03
2019-01-30T23:33:12.732Z,18.07
2019-01-30T23:36:52.304Z,21.57
2019-01-30T23:40:54.678Z,16.30
2019-01-30T23:44:18.664Z,15.77
2019-01-30T23:47:34.898Z,14.63
2019-01-30T23:51:17.833Z,17.90
2019-01-30T23:55:01.179Z,12.87
2019-01-30T23:58:38.805Z,13.13
